sensor_id;sensor_type;location;lat;lon;timestamp;pressure;altitude;pressure_sealevel;temperature;humidity
56600;BME280;51832;48.152;11.530;2023-09-08T00:00:59;95761.66;;;25.04;56.53
56600;BME280;51832;48.152;11.530;2023-09-08T00:05:59;95764.66;;;25.02;56.73
56600;BME280;51832;48.152;11.530;2023-09-08T00:11:00;95764.66;;;25.02;56.72
56600;BME280;51832;48.152;11.530;2023-09-08T00:16:00;95765.47;;;24.89;56.79
56600;BME280;51832;48.152;11.530;2023-09-08T00:21:01;95762.91;;;24.84;57.44
56600;BME280;51832;48.152;11.530;2023-09-08T00:26:01;95764.94;;;24.65;58.13
56600;BME280;51832;48.152;11.530;2023-09-08T00:31:02;95755.72;;;24.57;58.46
56600;BME280;51832;48.152;11.530;2023-09-08T00:36:03;95749.25;;;24.44;58.94
56600;BME280;51832;48.152;11.530;2023-09-08T00:41:05;95749.97;;;24.36;59.44
56600;BME280;51832;48.152;11.530;2023-09-08T00:46:06;95750.75;;;24.37;59.52
56600;BME280;51832;48.152;11.530;2023-09-08T00:51:08;95748.19;;;24.32;59.53
56600;BME280;51832;48.152;11.530;2023-09-08T00:56:10;95745.00;;;24.30;59.53
56600;BME280;51832;48.152;11.530;2023-09-08T01:01:11;95747.78;;;24.11;59.73
56600;BME280;51832;48.152;11.530;2023-09-08T01:06:13;95748.56;;;23.98;60.40
56600;BME280;51832;48.152;11.530;2023-09-08T01:11:14;95750.66;;;23.87;61.26
56600;BME280;51832;48.152;11.530;2023-09-08T01:16:14;95747.38;;;23.77;61.03
56600;BME280;51832;48.152;11.530;2023-09-08T01:26:31;95751.75;;;23.86;61.82
56600;BME280;51832;48.152;11.530;2023-09-08T01:31:36;95743.59;;;23.78;61.98
56600;BME280;51832;48.152;11.530;2023-09-08T01:36:38;95744.88;;;23.80;61.91
56600;BME280;51832;48.152;11.530;2023-09-08T01:41:38;95739.31;;;23.77;61.99
56600;BME280;51832;48.152;11.530;2023-09-08T01:46:39;95741.19;;;23.62;62.83
56600;BME280;51832;48.152;11.530;2023-09-08T01:51:41;95741.03;;;23.40;63.45
56600;BME280;51832;48.152;11.530;2023-09-08T01:56:41;95728.25;;;23.18;64.65
56600;BME280;51832;48.152;11.530;2023-09-08T02:01:42;95728.06;;;23.28;64.17
56600;BME280;51832;48.152;11.530;2023-09-08T02:06:42;95727.03;;;23.11;64.88
56600;BME280;51832;48.152;11.530;2023-09-08T02:11:43;95733.06;;;23.02;65.19
56600;BME280;51832;48.152;11.530;2023-09-08T02:16:44;95725.34;;;23.15;65.03
56600;BME280;51832;48.152;11.530;2023-09-08T02:21:44;95727.97;;;23.20;64.93
56600;BME280;51832;48.152;11.530;2023-09-08T02:26:45;95729.06;;;23.19;64.80
56600;BME280;51832;48.152;11.530;2023-09-08T02:31:45;95734.97;;;22.83;65.92
56600;BME280;51832;48.152;11.530;2023-09-08T02:36:46;95735.25;;;22.63;66.57
56600;BME280;51832;48.152;11.530;2023-09-08T02:41:47;95726.63;;;22.47;67.13
56600;BME280;51832;48.152;11.530;2023-09-08T02:46:48;95724.97;;;22.51;66.64
56600;BME280;51832;48.152;11.530;2023-09-08T02:51:48;95728.25;;;22.67;66.47
56600;BME280;51832;48.152;11.530;2023-09-08T02:56:49;95729.22;;;22.71;66.58
56600;BME280;51832;48.152;11.530;2023-09-08T03:01:49;95733.19;;;22.79;66.01
56600;BME280;51832;48.152;11.530;2023-09-08T03:06:49;95732.38;;;22.78;66.28
56600;BME280;51832;48.152;11.530;2023-09-08T03:11:50;95733.97;;;22.79;66.38
56600;BME280;51832;48.152;11.530;2023-09-08T03:16:50;95735.38;;;22.72;66.46
56600;BME280;51832;48.152;11.530;2023-09-08T03:21:50;95722.06;;;22.66;66.70
56600;BME280;51832;48.152;11.530;2023-09-08T03:26:51;95723.97;;;22.66;66.86
56600;BME280;51832;48.152;11.530;2023-09-08T03:31:51;95726.28;;;22.54;67.13
56600;BME280;51832;48.152;11.530;2023-09-08T03:36:53;95723.81;;;22.39;67.86
56600;BME280;51832;48.152;11.530;2023-09-08T03:41:54;95732.28;;;22.27;68.42
56600;BME280;51832;48.152;11.530;2023-09-08T03:46:54;95724.97;;;22.14;69.31
56600;BME280;51832;48.152;11.530;2023-09-08T03:51:54;95730.47;;;22.22;68.75
56600;BME280;51832;48.152;11.530;2023-09-08T03:56:55;95719.50;;;22.19;68.70
56600;BME280;51832;48.152;11.530;2023-09-08T04:01:55;95734.22;;;22.21;68.47
56600;BME280;51832;48.152;11.530;2023-09-08T04:06:56;95736.69;;;21.94;69.15
56600;BME280;51832;48.152;11.530;2023-09-08T04:11:56;95738.78;;;21.73;69.46
56600;BME280;51832;48.152;11.530;2023-09-08T04:16:57;95741.97;;;21.75;68.96
56600;BME280;51832;48.152;11.530;2023-09-08T04:21:57;95736.63;;;21.75;69.28
56600;BME280;51832;48.152;11.530;2023-09-08T04:26:58;95732.00;;;21.81;69.25
56600;BME280;51832;48.152;11.530;2023-09-08T04:31:58;95728.50;;;21.85;68.67
56600;BME280;51832;48.152;11.530;2023-09-08T04:36:59;95738.06;;;21.68;69.25
56600;BME280;51832;48.152;11.530;2023-09-08T04:42:03;95731.59;;;22.16;68.58
56600;BME280;51832;48.152;11.530;2023-09-08T04:47:04;95738.38;;;22.70;66.12
56600;BME280;51832;48.152;11.530;2023-09-08T04:52:05;95732.72;;;22.90;64.39
56600;BME280;51832;48.152;11.530;2023-09-08T04:57:05;95745.69;;;22.83;65.00
56600;BME280;51832;48.152;11.530;2023-09-08T05:02:06;95746.41;;;22.70;65.53
56600;BME280;51832;48.152;11.530;2023-09-08T05:07:06;95742.44;;;22.86;64.76
56600;BME280;51832;48.152;11.530;2023-09-08T05:12:06;95749.78;;;22.81;65.94
56600;BME280;51832;48.152;11.530;2023-09-08T05:17:07;95747.97;;;22.95;66.10
56600;BME280;51832;48.152;11.530;2023-09-08T05:22:07;95752.50;;;22.76;66.43
56600;BME280;51832;48.152;11.530;2023-09-08T05:27:08;95757.13;;;22.32;67.07
56600;BME280;51832;48.152;11.530;2023-09-08T05:32:08;95762.19;;;21.62;70.70
56600;BME280;51832;48.152;11.530;2023-09-08T05:37:08;95758.31;;;21.74;71.49
56600;BME280;51832;48.152;11.530;2023-09-08T05:42:09;95766.09;;;21.75;70.84
56600;BME280;51832;48.152;11.530;2023-09-08T05:47:09;95778.34;;;21.57;71.17
56600;BME280;51832;48.152;11.530;2023-09-08T05:52:09;95765.06;;;22.00;69.81
56600;BME280;51832;48.152;11.530;2023-09-08T05:57:10;95772.09;;;22.15;69.40
56600;BME280;51832;48.152;11.530;2023-09-08T06:02:10;95769.50;;;22.10;69.60
56600;BME280;51832;48.152;11.530;2023-09-08T06:07:11;95786.75;;;21.98;69.77
56600;BME280;51832;48.152;11.530;2023-09-08T06:12:11;95788.13;;;22.20;68.92
56600;BME280;51832;48.152;11.530;2023-09-08T06:17:11;95784.63;;;22.62;68.01
56600;BME280;51832;48.152;11.530;2023-09-08T06:22:12;95778.41;;;22.66;68.38
56600;BME280;51832;48.152;11.530;2023-09-08T06:27:14;95779.25;;;22.62;68.00
56600;BME280;51832;48.152;11.530;2023-09-08T06:32:15;95782.66;;;22.49;68.13
56600;BME280;51832;48.152;11.530;2023-09-08T06:37:15;95781.28;;;22.51;68.34
56600;BME280;51832;48.152;11.530;2023-09-08T06:42:15;95786.34;;;22.77;67.49
56600;BME280;51832;48.152;11.530;2023-09-08T06:47:16;95788.94;;;22.82;68.01
56600;BME280;51832;48.152;11.530;2023-09-08T06:52:17;95798.38;;;22.79;68.77
56600;BME280;51832;48.152;11.530;2023-09-08T06:57:18;95799.31;;;23.07;68.54
56600;BME280;51832;48.152;11.530;2023-09-08T07:02:20;95793.13;;;23.39;66.74
56600;BME280;51832;48.152;11.530;2023-09-08T07:07:20;95794.34;;;23.79;65.50
56600;BME280;51832;48.152;11.530;2023-09-08T07:12:20;95792.75;;;23.92;65.20
56600;BME280;51832;48.152;11.530;2023-09-08T07:17:21;95788.50;;;23.91;65.84
56600;BME280;51832;48.152;11.530;2023-09-08T07:22:23;95795.69;;;24.36;66.01
56600;BME280;51832;48.152;11.530;2023-09-08T07:27:23;95799.19;;;24.23;65.61
56600;BME280;51832;48.152;11.530;2023-09-08T07:32:24;95796.28;;;24.33;65.11
56600;BME280;51832;48.152;11.530;2023-09-08T07:37:24;95788.91;;;24.25;64.34
56600;BME280;51832;48.152;11.530;2023-09-08T07:42:25;95796.59;;;24.46;65.00
56600;BME280;51832;48.152;11.530;2023-09-08T07:47:25;95792.09;;;24.41;65.00
56600;BME280;51832;48.152;11.530;2023-09-08T07:52:26;95790.25;;;24.64;63.63
56600;BME280;51832;48.152;11.530;2023-09-08T07:57:26;95805.09;;;24.61;64.98
56600;BME280;51832;48.152;11.530;2023-09-08T08:02:27;95802.22;;;24.71;64.90
56600;BME280;51832;48.152;11.530;2023-09-08T08:07:27;95805.88;;;24.75;65.14
56600;BME280;51832;48.152;11.530;2023-09-08T08:12:27;95802.84;;;24.55;67.20
56600;BME280;51832;48.152;11.530;2023-09-08T08:17:28;95798.56;;;24.54;67.17
56600;BME280;51832;48.152;11.530;2023-09-08T08:22:29;95803.97;;;24.76;66.15
56600;BME280;51832;48.152;11.530;2023-09-08T08:27:30;95795.16;;;24.62;67.05
56600;BME280;51832;48.152;11.530;2023-09-08T08:32:33;95792.88;;;25.05;65.97
56600;BME280;51832;48.152;11.530;2023-09-08T08:37:34;95795.00;;;25.17;65.14
56600;BME280;51832;48.152;11.530;2023-09-08T08:42:34;95796.84;;;25.07;65.67
56600;BME280;51832;48.152;11.530;2023-09-08T08:47:35;95791.88;;;25.45;64.60
56600;BME280;51832;48.152;11.530;2023-09-08T08:52:35;95805.19;;;25.42;64.39
56600;BME280;51832;48.152;11.530;2023-09-08T08:57:39;95800.28;;;25.66;64.34
56600;BME280;51832;48.152;11.530;2023-09-08T09:02:41;95792.75;;;25.85;63.42
56600;BME280;51832;48.152;11.530;2023-09-08T09:07:42;95790.78;;;26.00;64.01
56600;BME280;51832;48.152;11.530;2023-09-08T09:12:43;95785.16;;;26.27;62.52
56600;BME280;51832;48.152;11.530;2023-09-08T09:17:44;95785.66;;;26.29;62.70
56600;BME280;51832;48.152;11.530;2023-09-08T09:22:53;95770.16;;;26.43;61.81
56600;BME280;51832;48.152;11.530;2023-09-08T09:27:55;95777.63;;;26.55;61.62
56600;BME280;51832;48.152;11.530;2023-09-08T09:33:03;95772.88;;;26.61;61.95
56600;BME280;51832;48.152;11.530;2023-09-08T09:38:03;95774.94;;;26.55;62.88
56600;BME280;51832;48.152;11.530;2023-09-08T09:43:04;95774.47;;;26.62;61.13
56600;BME280;51832;48.152;11.530;2023-09-08T09:48:06;95767.50;;;26.61;61.75
56600;BME280;51832;48.152;11.530;2023-09-08T09:53:12;95764.81;;;26.78;60.40
56600;BME280;51832;48.152;11.530;2023-09-08T09:58:13;95765.59;;;26.87;60.58
56600;BME280;51832;48.152;11.530;2023-09-08T10:03:14;95755.28;;;26.72;59.82
56600;BME280;51832;48.152;11.530;2023-09-08T10:08:15;95753.03;;;26.82;59.59
56600;BME280;51832;48.152;11.530;2023-09-08T10:13:20;95748.00;;;26.98;58.70
56600;BME280;51832;48.152;11.530;2023-09-08T10:18:23;95741.78;;;27.15;58.15
56600;BME280;51832;48.152;11.530;2023-09-08T10:23:37;95748.78;;;27.07;57.56
56600;BME280;51832;48.152;11.530;2023-09-08T10:28:39;95746.38;;;27.23;56.63
56600;BME280;51832;48.152;11.530;2023-09-08T10:33:39;95744.28;;;27.46;55.98
56600;BME280;51832;48.152;11.530;2023-09-08T10:38:41;95746.84;;;27.42;56.46
56600;BME280;51832;48.152;11.530;2023-09-08T10:43:46;95749.97;;;27.53;55.24
56600;BME280;51832;48.152;11.530;2023-09-08T10:48:46;95742.81;;;27.74;54.91
56600;BME280;51832;48.152;11.530;2023-09-08T10:53:47;95750.34;;;27.98;55.58
56600;BME280;51832;48.152;11.530;2023-09-08T10:58:51;95735.78;;;28.20;55.43
56600;BME280;51832;48.152;11.530;2023-09-08T11:03:52;95739.75;;;28.22;55.33
56600;BME280;51832;48.152;11.530;2023-09-08T11:08:53;95737.50;;;28.24;55.45
56600;BME280;51832;48.152;11.530;2023-09-08T11:13:56;95738.03;;;28.68;54.95
56600;BME280;51832;48.152;11.530;2023-09-08T11:18:56;95736.22;;;28.81;54.17
56600;BME280;51832;48.152;11.530;2023-09-08T11:23:57;95746.22;;;29.01;53.95
56600;BME280;51832;48.152;11.530;2023-09-08T11:28:57;95741.53;;;29.10;54.38
56600;BME280;51832;48.152;11.530;2023-09-08T11:33:58;95746.06;;;29.18;53.65
56600;BME280;51832;48.152;11.530;2023-09-08T11:39:00;95745.97;;;29.48;53.25
56600;BME280;51832;48.152;11.530;2023-09-08T11:44:00;95744.72;;;29.45;52.65
56600;BME280;51832;48.152;11.530;2023-09-08T11:49:00;95738.88;;;29.67;52.55
56600;BME280;51832;48.152;11.530;2023-09-08T11:54:01;95734.97;;;29.89;52.40
56600;BME280;51832;48.152;11.530;2023-09-08T11:59:02;95732.09;;;30.19;52.29
56600;BME280;51832;48.152;11.530;2023-09-08T12:04:03;95726.19;;;30.29;52.03
56600;BME280;51832;48.152;11.530;2023-09-08T12:09:04;95725.84;;;30.55;50.96
56600;BME280;51832;48.152;11.530;2023-09-08T12:14:11;95722.94;;;30.88;50.79
56600;BME280;51832;48.152;11.530;2023-09-08T12:19:31;95727.16;;;30.73;51.15
56600;BME280;51832;48.152;11.530;2023-09-08T12:24:48;95722.88;;;31.12;49.58
56600;BME280;51832;48.152;11.530;2023-09-08T12:29:56;95719.19;;;31.20;48.96
56600;BME280;51832;48.152;11.530;2023-09-08T12:34:58;95715.97;;;31.30;49.03
56600;BME280;51832;48.152;11.530;2023-09-08T12:39:58;95719.00;;;31.41;49.09
56600;BME280;51832;48.152;11.530;2023-09-08T12:45:01;95717.81;;;31.86;48.03
56600;BME280;51832;48.152;11.530;2023-09-08T12:50:03;95720.88;;;32.15;46.54
56600;BME280;51832;48.152;11.530;2023-09-08T12:55:04;95715.97;;;32.37;46.13
56600;BME280;51832;48.152;11.530;2023-09-08T13:00:05;95712.91;;;32.58;45.40
56600;BME280;51832;48.152;11.530;2023-09-08T13:05:06;95706.09;;;33.02;45.26
56600;BME280;51832;48.152;11.530;2023-09-08T13:10:07;95714.63;;;32.81;44.74
56600;BME280;51832;48.152;11.530;2023-09-08T13:15:08;95704.66;;;33.08;44.58
56600;BME280;51832;48.152;11.530;2023-09-08T13:20:09;95691.94;;;33.35;43.65
56600;BME280;51832;48.152;11.530;2023-09-08T13:25:09;95703.78;;;33.66;43.00
56600;BME280;51832;48.152;11.530;2023-09-08T13:30:14;95698.41;;;34.15;42.21
56600;BME280;51832;48.152;11.530;2023-09-08T13:35:15;95688.91;;;34.32;41.48
56600;BME280;51832;48.152;11.530;2023-09-08T13:40:15;95687.22;;;34.76;41.68
56600;BME280;51832;48.152;11.530;2023-09-08T13:45:15;95697.09;;;34.58;41.05
56600;BME280;51832;48.152;11.530;2023-09-08T13:50:16;95684.97;;;34.85;40.69
56600;BME280;51832;48.152;11.530;2023-09-08T13:55:16;95683.47;;;35.21;39.65
56600;BME280;51832;48.152;11.530;2023-09-08T14:00:18;95675.28;;;35.25;39.21
56600;BME280;51832;48.152;11.530;2023-09-08T14:05:18;95669.84;;;34.91;39.90
56600;BME280;51832;48.152;11.530;2023-09-08T14:10:19;95668.34;;;35.31;39.79
56600;BME280;51832;48.152;11.530;2023-09-08T14:15:20;95668.44;;;35.82;38.16
56600;BME280;51832;48.152;11.530;2023-09-08T14:20:20;95667.66;;;35.78;37.95
56600;BME280;51832;48.152;11.530;2023-09-08T14:25:20;95663.19;;;36.07;37.56
56600;BME280;51832;48.152;11.530;2023-09-08T14:30:21;95669.72;;;36.50;36.89
56600;BME280;51832;48.152;11.530;2023-09-08T14:35:21;95654.59;;;36.78;36.55
56600;BME280;51832;48.152;11.530;2023-09-08T14:40:22;95660.94;;;36.96;35.53
56600;BME280;51832;48.152;11.530;2023-09-08T14:45:23;95661.44;;;37.19;34.77
56600;BME280;51832;48.152;11.530;2023-09-08T14:50:23;95657.16;;;37.29;34.07
56600;BME280;51832;48.152;11.530;2023-09-08T16:00:12;95650.75;;;39.68;31.31
56600;BME280;51832;48.152;11.530;2023-09-08T16:05:13;95647.84;;;40.34;30.71
56600;BME280;51832;48.152;11.530;2023-09-08T16:10:14;95653.91;;;39.70;30.77
56600;BME280;51832;48.152;11.530;2023-09-08T16:15:15;95643.47;;;39.44;31.78
56600;BME280;51832;48.152;11.530;2023-09-08T16:20:15;95643.44;;;40.03;30.72
56600;BME280;51832;48.152;11.530;2023-09-08T16:25:16;95631.53;;;40.51;30.27
56600;BME280;51832;48.152;11.530;2023-09-08T16:30:17;95649.41;;;40.39;30.49
56600;BME280;51832;48.152;11.530;2023-09-08T16:35:17;95646.50;;;40.08;31.01
56600;BME280;51832;48.152;11.530;2023-09-08T16:40:18;95640.09;;;40.60;31.06
56600;BME280;51832;48.152;11.530;2023-09-08T16:45:19;95643.19;;;40.28;30.82
56600;BME280;51832;48.152;11.530;2023-09-08T16:50:19;95646.06;;;39.65;32.10
56600;BME280;51832;48.152;11.530;2023-09-08T16:55:20;95653.06;;;40.22;31.69
56600;BME280;51832;48.152;11.530;2023-09-08T17:00:20;95657.63;;;39.42;32.50
56600;BME280;51832;48.152;11.530;2023-09-08T17:05:21;95648.44;;;40.15;31.43
56600;BME280;51832;48.152;11.530;2023-09-08T17:10:22;95650.66;;;39.83;32.10
56600;BME280;51832;48.152;11.530;2023-09-08T17:15:23;95655.09;;;39.66;31.70
56600;BME280;51832;48.152;11.530;2023-09-08T17:20:23;95650.56;;;37.94;34.61
56600;BME280;51832;48.152;11.530;2023-09-08T17:25:25;95646.22;;;37.61;35.70
56600;BME280;51832;48.152;11.530;2023-09-08T17:30:26;95661.09;;;37.28;36.22
56600;BME280;51832;48.152;11.530;2023-09-08T17:35:27;95652.47;;;35.88;38.88
56600;BME280;51832;48.152;11.530;2023-09-08T17:40:27;95666.25;;;34.87;41.22
56600;BME280;51832;48.152;11.530;2023-09-08T17:45:28;95665.72;;;34.22;43.66
56600;BME280;51832;48.152;11.530;2023-09-08T17:50:28;95664.50;;;33.70;44.87
56600;BME280;51832;48.152;11.530;2023-09-08T17:55:29;95675.00;;;33.91;44.77
56600;BME280;51832;48.152;11.530;2023-09-08T18:00:30;95671.88;;;33.89;45.41
56600;BME280;51832;48.152;11.530;2023-09-08T18:05:30;95673.25;;;33.79;46.03
56600;BME280;51832;48.152;11.530;2023-09-08T18:10:30;95668.00;;;33.25;47.04
56600;BME280;51832;48.152;11.530;2023-09-08T18:15:31;95682.31;;;33.22;47.45
56600;BME280;51832;48.152;11.530;2023-09-08T18:20:33;95677.00;;;32.71;48.49
56600;BME280;51832;48.152;11.530;2023-09-08T18:25:34;95667.03;;;32.60;48.94
56600;BME280;51832;48.152;11.530;2023-09-08T18:30:34;95681.81;;;32.59;49.03
56600;BME280;51832;48.152;11.530;2023-09-08T18:35:35;95682.03;;;32.50;49.48
56600;BME280;51832;48.152;11.530;2023-09-08T18:40:35;95677.13;;;32.40;49.83
56600;BME280;51832;48.152;11.530;2023-09-08T18:45:35;95676.19;;;32.17;50.33
56600;BME280;51832;48.152;11.530;2023-09-08T18:50:36;95677.44;;;32.19;50.70
56600;BME280;51832;48.152;11.530;2023-09-08T18:55:36;95676.41;;;31.92;51.24
56600;BME280;51832;48.152;11.530;2023-09-08T19:00:42;95679.91;;;31.77;51.87
56600;BME280;51832;48.152;11.530;2023-09-08T19:05:43;95678.34;;;31.76;51.96
56600;BME280;51832;48.152;11.530;2023-09-08T19:10:43;95683.91;;;31.52;52.21
56600;BME280;51832;48.152;11.530;2023-09-08T19:15:46;95678.72;;;31.47;52.37
56600;BME280;51832;48.152;11.530;2023-09-08T19:20:47;95687.16;;;31.41;52.37
56600;BME280;51832;48.152;11.530;2023-09-08T19:25:48;95684.31;;;31.22;53.06
56600;BME280;51832;48.152;11.530;2023-09-08T19:30:48;95689.81;;;31.10;53.44
56600;BME280;51832;48.152;11.530;2023-09-08T19:35:50;95682.59;;;30.90;54.00
56600;BME280;51832;48.152;11.530;2023-09-08T19:41:00;95684.03;;;30.71;54.74
56600;BME280;51832;48.152;11.530;2023-09-08T19:46:04;95676.63;;;30.56;55.23
56600;BME280;51832;48.152;11.530;2023-09-08T19:51:04;95685.22;;;30.46;55.86
56600;BME280;51832;48.152;11.530;2023-09-08T19:56:05;95687.50;;;30.32;56.45
56600;BME280;51832;48.152;11.530;2023-09-08T20:01:10;95680.50;;;30.19;56.91
56600;BME280;51832;48.152;11.530;2023-09-08T20:06:14;95697.69;;;30.11;57.33
56600;BME280;51832;48.152;11.530;2023-09-08T20:11:20;95688.22;;;30.04;57.48
56600;BME280;51832;48.152;11.530;2023-09-08T20:16:20;95691.34;;;29.94;57.58
56600;BME280;51832;48.152;11.530;2023-09-08T20:21:21;95689.88;;;29.85;57.70
56600;BME280;51832;48.152;11.530;2023-09-08T20:26:21;95687.50;;;29.71;58.10
56600;BME280;51832;48.152;11.530;2023-09-08T20:31:22;95684.44;;;29.60;58.00
56600;BME280;51832;48.152;11.530;2023-09-08T20:36:22;95685.44;;;29.56;57.93
56600;BME280;51832;48.152;11.530;2023-09-08T20:41:23;95676.56;;;29.34;58.33
56600;BME280;51832;48.152;11.530;2023-09-08T20:46:23;95679.59;;;29.33;58.14
56600;BME280;51832;48.152;11.530;2023-09-08T20:51:24;95685.47;;;29.23;58.33
56600;BME280;51832;48.152;11.530;2023-09-08T20:56:24;95685.19;;;29.16;58.29
56600;BME280;51832;48.152;11.530;2023-09-08T21:01:24;95679.88;;;29.07;58.64
56600;BME280;51832;48.152;11.530;2023-09-08T21:06:27;95684.31;;;28.91;58.96
56600;BME280;51832;48.152;11.530;2023-09-08T21:11:27;95683.88;;;28.89;59.15
56600;BME280;51832;48.152;11.530;2023-09-08T21:16:28;95687.56;;;28.84;59.34
56600;BME280;51832;48.152;11.530;2023-09-08T21:21:28;95683.00;;;28.76;59.60
56600;BME280;51832;48.152;11.530;2023-09-08T21:26:28;95692.56;;;28.74;59.67
56600;BME280;51832;48.152;11.530;2023-09-08T21:31:29;95679.75;;;28.62;59.40
56600;BME280;51832;48.152;11.530;2023-09-08T21:36:29;95688.06;;;28.57;59.66
56600;BME280;51832;48.152;11.530;2023-09-08T21:41:30;95686.09;;;28.45;60.15
56600;BME280;51832;48.152;11.530;2023-09-08T21:46:31;95684.88;;;28.43;60.16
56600;BME280;51832;48.152;11.530;2023-09-08T21:51:31;95670.91;;;28.32;60.68
56600;BME280;51832;48.152;11.530;2023-09-08T21:56:31;95675.91;;;28.21;60.89
56600;BME280;51832;48.152;11.530;2023-09-08T22:01:32;95678.63;;;28.21;60.38
56600;BME280;51832;48.152;11.530;2023-09-08T22:06:32;95677.84;;;28.21;60.48
56600;BME280;51832;48.152;11.530;2023-09-08T22:11:33;95677.38;;;28.19;60.57
56600;BME280;51832;48.152;11.530;2023-09-08T22:16:33;95673.09;;;28.09;61.20
56600;BME280;51832;48.152;11.530;2023-09-08T22:21:36;95671.97;;;27.81;62.15
56600;BME280;51832;48.152;11.530;2023-09-08T22:26:37;95671.50;;;27.79;62.13
56600;BME280;51832;48.152;11.530;2023-09-08T22:31:38;95670.72;;;27.78;62.06
56600;BME280;51832;48.152;11.530;2023-09-08T22:36:38;95678.84;;;27.78;61.85
56600;BME280;51832;48.152;11.530;2023-09-08T22:41:39;95671.56;;;27.70;61.99
56600;BME280;51832;48.152;11.530;2023-09-08T22:46:39;95667.59;;;27.68;61.79
56600;BME280;51832;48.152;11.530;2023-09-08T22:51:39;95658.22;;;27.65;61.98
56600;BME280;51832;48.152;11.530;2023-09-08T22:56:41;95662.69;;;27.61;62.10
56600;BME280;51832;48.152;11.530;2023-09-08T23:01:43;95670.47;;;27.54;61.87
56600;BME280;51832;48.152;11.530;2023-09-08T23:06:43;95664.00;;;27.46;61.96
56600;BME280;51832;48.152;11.530;2023-09-08T23:11:43;95666.41;;;27.39;62.06
56600;BME280;51832;48.152;11.530;2023-09-08T23:16:44;95667.84;;;27.37;62.48
56600;BME280;51832;48.152;11.530;2023-09-08T23:21:45;95661.19;;;27.25;63.13
56600;BME280;51832;48.152;11.530;2023-09-08T23:26:45;95659.66;;;27.16;63.90
56600;BME280;51832;48.152;11.530;2023-09-08T23:31:45;95652.97;;;27.13;63.99
56600;BME280;51832;48.152;11.530;2023-09-08T23:36:46;95654.75;;;27.01;64.48
56600;BME280;51832;48.152;11.530;2023-09-08T23:41:46;95660.13;;;26.83;65.14
56600;BME280;51832;48.152;11.530;2023-09-08T23:46:47;95659.69;;;26.73;65.61
56600;BME280;51832;48.152;11.530;2023-09-08T23:51:47;95646.66;;;26.75;65.30
56600;BME280;51832;48.152;11.530;2023-09-08T23:56:48;95649.81;;;26.68;65.51
